createdAt,value
2022-09-27T00:02:18.843Z,2.17
2022-09-27T00:04:45.493Z,2.30
2022-09-27T00:07:12.703Z,2.10
2022-09-27T00:09:39.436Z,2.13
2022-09-27T00:12:06.128Z,2.00
2022-09-27T00:14:33.090Z,1.80
2022-09-27T00:16:59.736Z,2.10
2022-09-27T00:19:26.958Z,2.00
2022-09-27T00:21:53.574Z,2.20
2022-09-27T00:24:22.618Z,2.40
2022-09-27T00:26:50.049Z,2.30
2022-09-27T00:29:18.653Z,2.43
2022-09-27T00:31:45.840Z,2.67
2022-09-27T00:34:21.839Z,2.90
2022-09-27T00:36:50.776Z,3.10
2022-09-27T00:39:17.938Z,3.33
2022-09-27T00:41:45.181Z,3.07
2022-09-27T00:44:26.961Z,2.63
2022-09-27T00:46:56.571Z,3.00
2022-09-27T00:49:33.156Z,2.90
2022-09-27T00:52:08.699Z,3.00
2022-09-27T00:54:38.808Z,3.03
2022-09-27T00:57:09.161Z,2.53
2022-09-27T00:59:43.592Z,2.90
2022-09-27T01:02:10.587Z,3.53
2022-09-27T01:04:39.563Z,3.33
2022-09-27T01:07:06.584Z,3.57
2022-09-27T01:09:34.866Z,3.80
2022-09-27T01:12:23.019Z,3.43
2022-09-27T01:15:01.678Z,3.20
2022-09-27T01:17:37.378Z,3.40
2022-09-27T01:20:31.450Z,3.17
2022-09-27T01:23:07.334Z,3.20
2022-09-27T01:25:58.721Z,3.10
2022-09-27T01:28:56.146Z,3.40
2022-09-27T01:31:22.792Z,3.27
2022-09-27T01:34:04.932Z,3.20
2022-09-27T01:37:03.105Z,2.53
2022-09-27T01:39:29.693Z,3.03
2022-09-27T01:42:22.410Z,2.50
2022-09-27T01:45:07.546Z,2.50
2022-09-27T01:47:59.471Z,2.57
2022-09-27T01:50:55.291Z,2.53
2022-09-27T01:53:33.549Z,2.50
2022-09-27T01:56:04.832Z,1.97
2022-09-27T01:58:49.054Z,2.57
2022-09-27T02:01:17.525Z,2.20
2022-09-27T02:03:48.868Z,2.53
2022-09-27T02:06:26.160Z,1.90
2022-09-27T02:09:40.298Z,1.60
2022-09-27T02:12:12.881Z,2.00
2022-09-27T02:14:48.689Z,2.00
2022-09-27T02:17:47.599Z,1.97
2022-09-27T02:20:22.064Z,1.83
2022-09-27T02:23:05.599Z,1.80
2022-09-27T02:25:45.390Z,1.57
2022-09-27T02:28:22.828Z,1.63
2022-09-27T02:30:49.876Z,1.70
2022-09-27T02:33:18.688Z,1.60
2022-09-27T02:35:46.332Z,1.50
2022-09-27T02:38:13.402Z,1.93
2022-09-27T02:40:45.993Z,1.90
2022-09-27T02:43:16.469Z,1.73
2022-09-27T02:46:06.245Z,1.80
2022-09-27T02:49:05.285Z,2.13
2022-09-27T02:51:56.172Z,2.07
2022-09-27T02:54:34.545Z,1.60
2022-09-27T02:57:10.533Z,1.77
2022-09-27T02:59:42.978Z,1.90
2022-09-27T03:02:28.820Z,2.13
2022-09-27T03:05:04.795Z,2.03
2022-09-27T03:07:32.074Z,1.80
2022-09-27T03:09:58.734Z,1.87
2022-09-27T03:12:28.608Z,1.70
2022-09-27T03:14:58.178Z,2.10
2022-09-27T03:17:25.192Z,1.97
2022-09-27T03:19:52.149Z,1.70
2022-09-27T03:22:19.086Z,1.77
2022-09-27T03:24:45.807Z,1.57
2022-09-27T03:27:12.494Z,1.47
2022-09-27T03:29:39.109Z,1.70
2022-09-27T03:32:05.758Z,1.73
2022-09-27T03:34:32.404Z,1.57
2022-09-27T03:36:59.108Z,1.50
2022-09-27T03:39:25.816Z,1.40
2022-09-27T03:41:53.113Z,1.70
2022-09-27T03:44:19.843Z,1.70
2022-09-27T03:46:49.481Z,1.47
2022-09-27T03:49:16.198Z,1.47
2022-09-27T03:51:43.198Z,1.33
2022-09-27T03:54:10.293Z,1.60
2022-09-27T03:56:36.978Z,1.30
2022-09-27T03:59:03.733Z,1.20
2022-09-27T04:01:30.621Z,1.40
2022-09-27T04:03:57.445Z,1.90
2022-09-27T04:06:24.241Z,2.00
2022-09-27T04:08:50.904Z,1.40
2022-09-27T04:11:17.569Z,1.07
2022-09-27T04:13:44.638Z,0.90
2022-09-27T04:16:11.430Z,0.90
2022-09-27T04:18:38.115Z,0.90
2022-09-27T04:21:04.940Z,0.90
2022-09-27T04:23:31.665Z,1.00
2022-09-27T04:25:58.385Z,0.80
2022-09-27T04:28:25.122Z,0.90
2022-09-27T04:30:51.796Z,0.80
2022-09-27T04:33:18.574Z,0.90
2022-09-27T04:36:03.977Z,1.13
2022-09-27T04:38:30.641Z,1.20
2022-09-27T04:40:57.420Z,1.20
2022-09-27T04:43:24.108Z,1.10
2022-09-27T04:45:50.795Z,1.20
2022-09-27T04:48:17.597Z,1.50
2022-09-27T04:50:44.271Z,1.50
2022-09-27T04:53:15.156Z,1.40
2022-09-27T04:55:46.512Z,1.30
2022-09-27T04:58:13.294Z,1.40
2022-09-27T05:00:42.018Z,1.60
2022-09-27T05:03:09.223Z,1.30
2022-09-27T05:05:35.939Z,1.27
2022-09-27T05:08:02.608Z,1.57
2022-09-27T05:10:29.255Z,1.57
2022-09-27T05:12:55.928Z,1.50
2022-09-27T05:15:23.069Z,1.27
2022-09-27T05:17:52.426Z,1.40
2022-09-27T05:20:19.612Z,1.50
2022-09-27T05:22:46.663Z,1.47
2022-09-27T05:25:13.435Z,1.50
2022-09-27T05:27:40.843Z,1.40
2022-09-27T05:30:08.381Z,1.30
2022-09-27T05:32:36.133Z,1.10
2022-09-27T05:35:02.794Z,1.40
2022-09-27T05:37:31.351Z,1.07
2022-09-27T05:39:57.998Z,1.00
2022-09-27T05:42:25.109Z,1.20
2022-09-27T05:44:52.315Z,0.90
2022-09-27T05:47:18.978Z,0.87
2022-09-27T05:49:45.617Z,0.80
2022-09-27T05:52:16.013Z,0.90
2022-09-27T05:54:44.181Z,1.00
2022-09-27T05:57:10.822Z,0.90
2022-09-27T05:59:37.443Z,0.80
2022-09-27T06:02:04.295Z,1.00
2022-09-27T06:04:31.044Z,1.00
2022-09-27T06:06:59.031Z,0.90
2022-09-27T06:09:27.415Z,0.90
2022-09-27T06:11:54.076Z,0.70
2022-09-27T06:14:20.915Z,1.00
2022-09-27T06:16:48.133Z,0.87
2022-09-27T06:19:15.115Z,1.20
2022-09-27T06:21:41.968Z,0.90
2022-09-27T06:24:08.703Z,0.90
2022-09-27T06:26:35.346Z,0.90
2022-09-27T06:29:02.035Z,0.90
2022-09-27T06:31:28.897Z,0.90
2022-09-27T06:33:55.508Z,0.90
2022-09-27T06:36:22.186Z,0.97
2022-09-27T06:38:49.733Z,0.93
2022-09-27T06:41:16.558Z,0.90
2022-09-27T06:43:43.294Z,1.03
2022-09-27T06:46:10.273Z,1.00
2022-09-27T06:48:38.463Z,1.00
2022-09-27T06:51:05.710Z,0.90
2022-09-27T06:53:32.784Z,0.80
2022-09-27T06:56:01.150Z,1.07
2022-09-27T06:58:47.520Z,1.00
2022-09-27T07:01:14.786Z,1.50
2022-09-27T07:03:44.490Z,1.10
2022-09-27T07:06:20.653Z,1.00
2022-09-27T07:08:52.124Z,1.07
2022-09-27T07:11:18.907Z,1.00
2022-09-27T07:13:45.777Z,1.00
2022-09-27T07:16:13.923Z,1.10
2022-09-27T07:18:41.946Z,1.20
2022-09-27T07:21:08.910Z,1.20
2022-09-27T07:23:37.053Z,1.20
2022-09-27T07:26:08.368Z,0.90
2022-09-27T07:28:35.422Z,1.30
2022-09-27T07:31:03.365Z,1.20
2022-09-27T07:33:30.773Z,1.23
2022-09-27T07:35:57.609Z,1.00
2022-09-27T07:38:24.823Z,0.80
2022-09-27T07:40:51.688Z,0.70
2022-09-27T07:43:19.531Z,0.70
2022-09-27T07:45:46.943Z,0.70
2022-09-27T07:48:16.304Z,0.70
2022-09-27T07:50:43.537Z,0.70
2022-09-27T07:53:13.268Z,0.73
2022-09-27T07:55:40.661Z,0.80
2022-09-27T07:58:10.098Z,0.80
2022-09-27T08:00:38.232Z,0.60
2022-09-27T08:03:10.751Z,0.70
2022-09-27T08:05:37.510Z,0.73
2022-09-27T08:08:05.043Z,0.67
2022-09-27T08:10:32.967Z,1.13
2022-09-27T08:13:03.418Z,0.90
2022-09-27T08:15:32.378Z,1.00
2022-09-27T08:17:59.427Z,0.90
2022-09-27T08:20:26.169Z,0.80
2022-09-27T08:22:53.036Z,0.77
2022-09-27T08:25:22.480Z,1.20
2022-09-27T08:27:57.252Z,0.90
2022-09-27T08:30:24.963Z,0.70
2022-09-27T08:32:59.504Z,0.70
2022-09-27T08:35:29.175Z,1.10
2022-09-27T08:37:59.625Z,0.90
2022-09-27T08:40:39.756Z,0.90
2022-09-27T08:43:20.592Z,0.90
2022-09-27T08:46:19.404Z,0.70
2022-09-27T08:48:50.227Z,1.10
2022-09-27T08:51:18.438Z,0.93
2022-09-27T08:53:53.377Z,1.10
2022-09-27T08:56:24.104Z,0.80
2022-09-27T08:58:58.578Z,0.70
2022-09-27T09:01:28.941Z,0.67
2022-09-27T09:04:00.382Z,0.60
2022-09-27T09:06:43.033Z,0.63
2022-09-27T09:09:33.059Z,0.70
2022-09-27T09:12:41.052Z,0.50
2022-09-27T09:15:19.403Z,0.67
2022-09-27T09:18:01.038Z,0.50
2022-09-27T09:20:52.803Z,0.40
2022-09-27T09:23:30.775Z,0.70
2022-09-27T09:26:12.519Z,0.50
2022-09-27T09:28:45.020Z,0.60
2022-09-27T09:31:31.417Z,0.50
2022-09-27T09:34:09.676Z,0.70
2022-09-27T09:36:45.045Z,0.70
2022-09-27T09:39:17.033Z,0.67
2022-09-27T09:42:11.851Z,0.80
2022-09-27T09:44:49.128Z,1.00
2022-09-27T09:47:35.657Z,0.70
2022-09-27T09:50:14.064Z,0.53
2022-09-27T09:52:46.649Z,0.70
2022-09-27T09:55:22.787Z,0.70
2022-09-27T09:58:14.541Z,1.13
2022-09-27T10:00:45.502Z,0.70
2022-09-27T10:03:12.266Z,0.90
2022-09-27T10:05:42.695Z,0.70
2022-09-27T10:08:17.449Z,0.50
2022-09-27T10:10:44.147Z,0.73
2022-09-27T10:13:17.317Z,0.50
2022-09-27T10:15:52.772Z,0.70
2022-09-27T10:18:20.368Z,0.77
2022-09-27T10:20:57.115Z,0.90
2022-09-27T10:23:25.349Z,0.80
2022-09-27T10:25:58.862Z,0.70
2022-09-27T10:28:33.378Z,0.70
2022-09-27T10:31:09.006Z,0.80
2022-09-27T10:33:39.354Z,1.00
2022-09-27T10:36:26.458Z,1.00
2022-09-27T10:38:55.617Z,1.30
2022-09-27T10:41:34.098Z,1.60
2022-09-27T10:44:32.474Z,1.40
2022-09-27T10:47:06.526Z,1.50
2022-09-27T10:49:38.505Z,1.20
2022-09-27T10:52:24.724Z,0.90
2022-09-27T10:55:01.583Z,1.00
2022-09-27T10:57:30.155Z,1.03
2022-09-27T11:00:37.536Z,0.90
2022-09-27T11:03:08.072Z,1.10
2022-09-27T11:05:39.548Z,1.07
2022-09-27T11:08:18.275Z,1.20
2022-09-27T11:11:00.076Z,0.80
2022-09-27T11:13:32.165Z,1.10
2022-09-27T11:15:58.829Z,1.03
2022-09-27T11:19:00.431Z,1.00
2022-09-27T11:21:45.461Z,0.87
2022-09-27T11:24:27.211Z,0.73
2022-09-27T11:27:12.458Z,1.10
2022-09-27T11:29:56.570Z,1.30
2022-09-27T11:32:50.195Z,1.10
2022-09-27T11:35:51.488Z,1.03
2022-09-27T11:38:52.304Z,1.30
2022-09-27T11:41:21.495Z,0.90
2022-09-27T11:44:13.508Z,0.87
2022-09-27T11:46:42.480Z,0.60
2022-09-27T11:49:25.837Z,0.60
2022-09-27T11:52:04.697Z,0.60
2022-09-27T11:54:47.116Z,0.75
2022-09-27T11:57:26.982Z,0.80
2022-09-27T12:00:10.489Z,0.77
2022-09-27T12:03:11.546Z,0.70
2022-09-27T12:05:58.374Z,0.70
2022-09-27T12:08:39.114Z,0.60
2022-09-27T12:11:18.222Z,0.70
2022-09-27T12:14:18.824Z,0.70
2022-09-27T12:16:47.921Z,0.70
2022-09-27T12:19:50.425Z,0.70
2022-09-27T12:22:40.138Z,0.90
2022-09-27T12:25:20.464Z,0.98
2022-09-27T12:27:58.262Z,1.08
2022-09-27T12:30:25.024Z,0.80
2022-09-27T12:33:19.002Z,0.75
2022-09-27T12:35:54.819Z,0.80
2022-09-27T12:38:49.641Z,0.65
2022-09-27T12:41:21.299Z,0.68
2022-09-27T12:43:50.330Z,0.90
2022-09-27T12:46:40.431Z,0.80
2022-09-27T12:49:21.371Z,0.60
2022-09-27T12:52:01.950Z,0.70
2022-09-27T12:54:46.667Z,0.90
2022-09-27T12:57:40.891Z,0.80
2022-09-27T13:00:25.721Z,1.00
2022-09-27T13:03:26.381Z,0.87
2022-09-27T13:06:24.695Z,1.00
2022-09-27T13:09:06.433Z,1.13
2022-09-27T13:11:41.682Z,1.10
2022-09-27T13:14:24.439Z,0.80
2022-09-27T13:16:51.622Z,0.43
2022-09-27T13:19:36.794Z,0.70
2022-09-27T13:22:05.298Z,0.80
2022-09-27T13:24:32.515Z,1.37
2022-09-27T13:27:01.509Z,0.77
2022-09-27T13:29:30.482Z,0.80
2022-09-27T13:32:00.030Z,0.60
2022-09-27T13:34:42.028Z,0.90
2022-09-27T13:37:39.980Z,1.23
2022-09-27T13:40:16.164Z,0.80
2022-09-27T13:43:05.125Z,0.90
2022-09-27T13:45:37.438Z,1.00
2022-09-27T13:48:16.177Z,0.83
2022-09-27T13:51:11.606Z,0.90
2022-09-27T13:53:40.726Z,1.27
2022-09-27T13:56:36.251Z,1.40
2022-09-27T13:59:14.711Z,1.30
2022-09-27T14:01:51.352Z,1.30
2022-09-27T14:04:22.583Z,1.10
2022-09-27T14:06:52.704Z,1.20
2022-09-27T14:09:37.505Z,1.20
2022-09-27T14:12:37.658Z,1.20
2022-09-27T14:15:07.427Z,1.90
2022-09-27T14:17:34.169Z,1.83
2022-09-27T14:20:03.001Z,1.33
2022-09-27T14:22:29.765Z,1.50
2022-09-27T14:24:57.263Z,1.70
2022-09-27T14:27:26.803Z,2.00
2022-09-27T14:30:28.049Z,0.93
2022-09-27T14:32:58.502Z,0.87
2022-09-27T14:35:46.356Z,1.07
2022-09-27T14:38:37.071Z,0.70
2022-09-27T14:41:07.896Z,0.90
2022-09-27T14:43:36.816Z,0.90
2022-09-27T14:46:06.966Z,0.80
2022-09-27T14:48:40.099Z,0.83
2022-09-27T14:51:14.522Z,1.20
2022-09-27T14:53:48.179Z,0.90
2022-09-27T14:56:22.598Z,0.90
2022-09-27T14:59:02.293Z,1.30
2022-09-27T15:01:29.930Z,1.00
2022-09-27T15:04:03.354Z,0.90
2022-09-27T15:06:30.461Z,0.93
2022-09-27T15:08:59.089Z,1.00
2022-09-27T15:11:27.159Z,1.03
2022-09-27T15:13:55.073Z,1.30
2022-09-27T15:16:23.299Z,0.93
2022-09-27T15:19:03.459Z,1.00
2022-09-27T15:21:36.400Z,0.90
2022-09-27T15:24:04.117Z,1.10
2022-09-27T15:26:42.494Z,0.90
2022-09-27T15:29:20.249Z,1.07
2022-09-27T15:32:08.137Z,1.30
2022-09-27T15:34:35.742Z,1.27
2022-09-27T15:37:05.100Z,1.07
2022-09-27T15:39:39.769Z,1.57
2022-09-27T15:42:17.415Z,1.90
2022-09-27T15:44:45.401Z,1.60
2022-09-27T15:47:51.299Z,2.00
2022-09-27T15:50:18.672Z,1.90
2022-09-27T15:52:47.629Z,1.50
2022-09-27T15:55:15.222Z,1.40
2022-09-27T15:57:43.019Z,1.23
2022-09-27T16:00:16.808Z,1.20
2022-09-27T16:02:43.821Z,1.20
2022-09-27T16:05:10.685Z,1.13
2022-09-27T16:07:37.518Z,1.10
2022-09-27T16:10:17.640Z,1.30
2022-09-27T16:12:47.166Z,1.23
2022-09-27T16:15:14.817Z,1.20
2022-09-27T16:17:42.745Z,1.03
2022-09-27T16:20:20.678Z,0.90
2022-09-27T16:22:47.458Z,1.10
2022-09-27T16:25:15.244Z,1.47
2022-09-27T16:27:42.607Z,1.50
2022-09-27T16:30:09.958Z,1.70
2022-09-27T16:32:47.560Z,1.33
2022-09-27T16:35:15.874Z,1.40
2022-09-27T16:37:42.918Z,1.37
2022-09-27T16:40:11.069Z,1.40
2022-09-27T16:42:38.276Z,1.90
2022-09-27T16:45:10.504Z,1.10
2022-09-27T16:47:38.604Z,1.50
2022-09-27T16:50:24.780Z,1.30
2022-09-27T16:52:52.479Z,1.20
2022-09-27T16:55:21.050Z,1.20
2022-09-27T16:57:49.045Z,2.10
2022-09-27T17:00:16.679Z,1.20
2022-09-27T17:02:47.090Z,1.30
2022-09-27T17:05:15.409Z,1.33
2022-09-27T17:07:42.496Z,1.40
2022-09-27T17:10:09.562Z,1.20
2022-09-27T17:12:36.318Z,1.30
2022-09-27T17:15:03.374Z,1.80
2022-09-27T17:17:30.156Z,1.70
2022-09-27T17:19:56.859Z,1.70
2022-09-27T17:22:23.579Z,1.33
2022-09-27T17:24:51.256Z,1.20
2022-09-27T17:27:18.088Z,0.90
2022-09-27T17:29:44.742Z,1.00
2022-09-27T17:32:13.640Z,1.07
2022-09-27T17:34:43.591Z,1.27
2022-09-27T17:37:11.105Z,1.03
2022-09-27T17:39:38.126Z,1.13
2022-09-27T17:42:05.143Z,1.10
2022-09-27T17:44:31.821Z,1.20
2022-09-27T17:47:36.983Z,1.30
2022-09-27T17:50:22.241Z,1.23
2022-09-27T17:52:49.140Z,1.40
2022-09-27T17:55:16.325Z,1.40
2022-09-27T17:57:43.185Z,1.40
2022-09-27T18:00:10.531Z,1.47
2022-09-27T18:02:37.307Z,1.20
2022-09-27T18:05:05.332Z,1.47
2022-09-27T18:07:33.287Z,1.23
2022-09-27T18:10:00.180Z,1.73
2022-09-27T18:12:32.146Z,1.70
2022-09-27T18:14:59.085Z,1.90
2022-09-27T18:17:25.869Z,2.57
2022-09-27T18:19:53.698Z,2.20
2022-09-27T18:22:20.394Z,1.77
2022-09-27T18:24:47.120Z,1.40
2022-09-27T18:27:18.312Z,1.23
2022-09-27T18:29:45.069Z,1.13
2022-09-27T18:32:11.776Z,1.37
2022-09-27T18:34:39.716Z,1.30
2022-09-27T18:37:06.428Z,1.30
2022-09-27T18:39:33.087Z,1.00
2022-09-27T18:41:59.827Z,0.80
2022-09-27T18:44:26.585Z,1.00
2022-09-27T18:46:53.402Z,1.00
2022-09-27T18:49:23.504Z,1.30
2022-09-27T18:51:53.387Z,1.90
2022-09-27T18:54:21.934Z,1.40
2022-09-27T18:56:50.357Z,1.50
2022-09-27T18:59:17.549Z,1.30
2022-09-27T19:01:47.314Z,1.30
2022-09-27T19:04:21.527Z,1.03
2022-09-27T19:06:50.670Z,0.90
2022-09-27T19:09:17.516Z,1.00
2022-09-27T19:11:44.608Z,1.37
2022-09-27T19:14:16.787Z,1.00
2022-09-27T19:16:44.838Z,1.00
2022-09-27T19:19:11.678Z,1.60
2022-09-27T19:21:38.416Z,1.03
2022-09-27T19:24:05.211Z,1.37
2022-09-27T19:26:31.875Z,2.60
2022-09-27T19:28:58.930Z,2.00
2022-09-27T19:31:26.998Z,1.50
2022-09-27T19:33:59.911Z,1.10
2022-09-27T19:36:27.845Z,0.77
2022-09-27T19:38:56.405Z,1.07
2022-09-27T19:41:23.072Z,0.80
2022-09-27T19:43:53.825Z,1.00
2022-09-27T19:46:21.937Z,0.80
2022-09-27T19:48:49.989Z,0.90
2022-09-27T19:51:19.281Z,0.90
2022-09-27T19:53:46.737Z,0.80
2022-09-27T19:56:14.225Z,0.80
2022-09-27T19:58:42.223Z,0.60
2022-09-27T20:01:16.113Z,0.83
2022-09-27T20:03:44.261Z,0.70
2022-09-27T20:06:15.043Z,0.80
2022-09-27T20:08:42.515Z,0.90
2022-09-27T20:11:12.530Z,0.60
2022-09-27T20:13:39.934Z,0.90
2022-09-27T20:16:12.946Z,0.70
2022-09-27T20:18:42.927Z,0.97
2022-09-27T20:21:09.837Z,0.80
2022-09-27T20:23:37.449Z,0.70
2022-09-27T20:26:13.712Z,1.03
2022-09-27T20:28:42.905Z,1.03
2022-09-27T20:31:12.073Z,1.00
2022-09-27T20:33:41.599Z,1.10
2022-09-27T20:36:20.338Z,1.37
2022-09-27T20:38:53.951Z,1.50
2022-09-27T20:41:25.036Z,1.70
2022-09-27T20:43:54.623Z,1.67
2022-09-27T20:46:23.015Z,1.30
2022-09-27T20:48:54.666Z,1.70
2022-09-27T20:51:22.225Z,1.83
2022-09-27T20:53:51.910Z,2.33
2022-09-27T20:56:26.691Z,1.47
2022-09-27T20:58:55.529Z,1.80
2022-09-27T21:01:23.504Z,1.57
2022-09-27T21:03:54.551Z,2.47
2022-09-27T21:06:23.000Z,2.00
2022-09-27T21:08:50.802Z,1.60
2022-09-27T21:11:18.813Z,1.53
2022-09-27T21:13:46.142Z,1.67
2022-09-27T21:16:16.010Z,2.00
2022-09-27T21:18:43.658Z,1.37
2022-09-27T21:21:12.429Z,1.43
2022-09-27T21:23:44.648Z,1.20
2022-09-27T21:26:20.731Z,1.20
2022-09-27T21:28:52.722Z,1.50
2022-09-27T21:31:22.974Z,1.20
2022-09-27T21:33:55.343Z,1.40
2022-09-27T21:36:24.289Z,1.33
2022-09-27T21:38:51.150Z,1.40
2022-09-27T21:41:18.082Z,1.70
2022-09-27T21:43:46.837Z,1.70
2022-09-27T21:46:14.738Z,1.33
2022-09-27T21:48:43.455Z,1.40
2022-09-27T21:51:11.552Z,1.77
2022-09-27T21:53:40.271Z,1.77
2022-09-27T21:56:08.521Z,1.90
2022-09-27T21:58:36.798Z,1.77
2022-09-27T22:01:12.189Z,1.77
2022-09-27T22:03:40.474Z,1.80
2022-09-27T22:06:10.682Z,1.70
2022-09-27T22:08:37.615Z,2.20
2022-09-27T22:11:05.322Z,1.87
2022-09-27T22:13:32.319Z,2.13
2022-09-27T22:16:04.456Z,2.10
2022-09-27T22:18:31.140Z,1.80
2022-09-27T22:21:12.634Z,1.80
2022-09-27T22:23:39.761Z,1.90
2022-09-27T22:26:21.779Z,2.13
2022-09-27T22:28:48.769Z,1.90
2022-09-27T22:31:18.603Z,2.10
2022-09-27T22:33:54.437Z,1.90
2022-09-27T22:36:22.351Z,2.30
2022-09-27T22:38:49.489Z,2.07
2022-09-27T22:41:16.392Z,2.00
2022-09-27T22:43:43.525Z,2.27
2022-09-27T22:46:10.467Z,1.97
2022-09-27T22:48:37.609Z,2.13
2022-09-27T22:51:05.196Z,1.97
2022-09-27T22:53:32.408Z,2.30
2022-09-27T22:56:07.134Z,2.50
2022-09-27T22:58:34.956Z,2.53
2022-09-27T23:01:09.944Z,2.80
2022-09-27T23:03:37.056Z,3.07
2022-09-27T23:06:04.833Z,3.00
2022-09-27T23:08:36.119Z,3.20
2022-09-27T23:11:08.846Z,3.20
2022-09-27T23:13:38.295Z,3.20
2022-09-27T23:16:07.807Z,3.37
2022-09-27T23:18:35.050Z,3.50
2022-09-27T23:21:03.932Z,3.87
2022-09-27T23:23:31.437Z,3.03
2022-09-27T23:26:00.298Z,3.07
2022-09-27T23:28:27.729Z,2.90
2022-09-27T23:30:54.540Z,2.97
2022-09-27T23:33:22.052Z,3.37
2022-09-27T23:35:50.276Z,3.33
2022-09-27T23:38:17.290Z,3.40
2022-09-27T23:40:44.710Z,3.90
2022-09-27T23:43:11.645Z,3.17
2022-09-27T23:45:38.790Z,3.33
2022-09-27T23:48:05.681Z,3.50
2022-09-27T23:50:32.528Z,3.63
2022-09-27T23:52:59.565Z,3.10
2022-09-27T23:55:26.267Z,3.17
2022-09-27T23:57:52.933Z,3.47
